Aérodrome :
LOGIN :

S'inscrire | Disclaimer

   EN    FR    IT 

 










Légende :    VFR   VFR Marginal   IFR   IFR Intensif   IFR Très Intensif
Visi : 
Plafond : 
>= 8 km
>= 3000ft
5 à 8 km
1000 à 3000 ft
1500m à 5 km
500 à 1000 ft
800 à 1500m
200 à 500 ft
< 800m
< 200 ft
Symboles :   Orages  Brouillard  Fortes neiges  Fortes précipitations  Vent > 20 kt
SIGMETs :   Divers  Orages  Givrage  Turbulence  Onde Orograph.  Cendres Volcan.






- Altitude de l'aérodrome : 160 ft
- Code IATA : FMO


EDDG - Münster Osnabrück Int.

DERNIER METAR :
  • 151350Z AUTO VRB05KT CAVOK 27/11 Q1011 NOSIG

METARs EXPIRÉS :
  • 151320Z AUTO 13005KT 040V190 CAVOK 26/11 Q1011 NOSIG
  • 151250Z AUTO 20006KT 130V290 CAVOK 26/11 Q1011 NOSIG
  • 151220Z AUTO VRB03KT CAVOK 25/12 Q1011 NOSIG
  • 151150Z AUTO VRB03KT CAVOK 24/11 Q1012
  • 151120Z AUTO VRB03KT CAVOK 25/12 Q1012 NOSIG
  • 151050Z AUTO 13004KT 060V200 CAVOK 24/11 Q1012 NOSIG
  • 151020Z AUTO 17004KT 070V230 9999 FEW047 24/12 Q1013 NOSIG
  • 150950Z AUTO 18005KT 080V250 9999 FEW044 23/13 Q1013 NOSIG
  • 150920Z AUTO 19005KT 130V250 9999 FEW041 23/12 Q1013 NOSIG

TAF TAF EDDG
Valide du 15 à 12h jusqu'au 16 à 12h UTC


151100Z 1512/1612 17005KT CAVOK
BECMG 1512/1515 10004KT
TEMPO 1520/1601 SHRA BKN030CB
BECMG 1522/1601 20007KT
PROB30
TEMPO 1602/1606 BKN014
BECMG 1605/1607 22013KT
TEMPO 1609/1612 22015G25KT



MET'MAP, la Météo Aéronautique d'un coup d'oeil ! - Copyright ORBIFLY Décembre 2007 - Disclaimer

ORBIFLY MET'MAP TEAM :

Programmation & Développement : Alexandra Zaïnal
Sur une idée originale de : Baudouin d'Aumeries
Soutien technique & logistique : Manuel Goepfert
Assistance : Marc-Olivier Méhu




SOURCES & CREDITS :

   NOAA